sensor_id;sensor_type;location;lat;lon;timestamp;P1;durP1;ratioP1;P2;durP2;ratioP2
49572;SDS011;35476;52.466;13.364;2023-02-13T00:00:51;35.90;;;20.60;;
49572;SDS011;35476;52.466;13.364;2023-02-13T00:03:16;42.85;;;19.92;;
49572;SDS011;35476;52.466;13.364;2023-02-13T00:05:42;42.85;;;20.48;;
49572;SDS011;35476;52.466;13.364;2023-02-13T00:08:07;45.20;;;21.45;;
49572;SDS011;35476;52.466;13.364;2023-02-13T00:10:32;46.63;;;22.73;;
49572;SDS011;35476;52.466;13.364;2023-02-13T00:12:57;40.63;;;22.03;;
49572;SDS011;35476;52.466;13.364;2023-02-13T00:15:22;42.22;;;21.27;;
49572;SDS011;35476;52.466;13.364;2023-02-13T00:17:48;49.40;;;22.27;;
49572;SDS011;35476;52.466;13.364;2023-02-13T00:20:13;44.60;;;20.47;;
49572;SDS011;35476;52.466;13.364;2023-02-13T00:22:38;40.30;;;20.08;;
49572;SDS011;35476;52.466;13.364;2023-02-13T00:25:04;30.20;;;17.38;;
49572;SDS011;35476;52.466;13.364;2023-02-13T00:27:29;32.95;;;17.70;;
49572;SDS011;35476;52.466;13.364;2023-02-13T00:29:54;29.43;;;15.83;;
49572;SDS011;35476;52.466;13.364;2023-02-13T00:32:19;29.10;;;13.57;;
49572;SDS011;35476;52.466;13.364;2023-02-13T00:34:44;29.37;;;15.23;;
49572;SDS011;35476;52.466;13.364;2023-02-13T00:37:10;25.37;;;13.40;;
49572;SDS011;35476;52.466;13.364;2023-02-13T00:39:35;23.80;;;13.30;;
49572;SDS011;35476;52.466;13.364;2023-02-13T00:42:00;24.80;;;11.70;;
49572;SDS011;35476;52.466;13.364;2023-02-13T00:44:25;21.37;;;11.87;;
49572;SDS011;35476;52.466;13.364;2023-02-13T00:46:50;17.70;;;10.23;;
49572;SDS011;35476;52.466;13.364;2023-02-13T00:49:16;16.90;;;8.63;;
49572;SDS011;35476;52.466;13.364;2023-02-13T00:51:41;14.13;;;7.53;;
49572;SDS011;35476;52.466;13.364;2023-02-13T00:54:06;10.87;;;5.73;;
49572;SDS011;35476;52.466;13.364;2023-02-13T00:56:32;10.30;;;6.30;;
49572;SDS011;35476;52.466;13.364;2023-02-13T00:58:57;11.07;;;6.13;;
49572;SDS011;35476;52.466;13.364;2023-02-13T01:01:22;12.17;;;6.20;;
49572;SDS011;35476;52.466;13.364;2023-02-13T01:03:47;9.67;;;5.17;;
49572;SDS011;35476;52.466;13.364;2023-02-13T01:06:12;9.23;;;5.27;;
49572;SDS011;35476;52.466;13.364;2023-02-13T01:08:38;8.43;;;4.07;;
49572;SDS011;35476;52.466;13.364;2023-02-13T01:11:04;11.10;;;4.72;;
49572;SDS011;35476;52.466;13.364;2023-02-13T01:13:29;6.57;;;4.40;;
49572;SDS011;35476;52.466;13.364;2023-02-13T01:15:54;8.67;;;4.70;;
49572;SDS011;35476;52.466;13.364;2023-02-13T01:18:20;7.13;;;3.70;;
49572;SDS011;35476;52.466;13.364;2023-02-13T01:20:45;9.55;;;4.28;;
49572;SDS011;35476;52.466;13.364;2023-02-13T01:23:18;7.97;;;4.20;;
49572;SDS011;35476;52.466;13.364;2023-02-13T01:25:44;5.77;;;3.40;;
49572;SDS011;35476;52.466;13.364;2023-02-13T01:28:09;4.00;;;3.00;;
49572;SDS011;35476;52.466;13.364;2023-02-13T01:30:34;12.57;;;5.60;;
49572;SDS011;35476;52.466;13.364;2023-02-13T01:32:59;9.63;;;3.30;;
49572;SDS011;35476;52.466;13.364;2023-02-13T01:35:25;5.32;;;3.25;;
49572;SDS011;35476;52.466;13.364;2023-02-13T01:37:50;6.33;;;3.27;;
49572;SDS011;35476;52.466;13.364;2023-02-13T01:40:15;4.53;;;2.80;;
49572;SDS011;35476;52.466;13.364;2023-02-13T01:42:41;5.57;;;3.17;;
49572;SDS011;35476;52.466;13.364;2023-02-13T01:45:21;7.40;;;3.15;;
49572;SDS011;35476;52.466;13.364;2023-02-13T01:47:48;7.03;;;3.85;;
49572;SDS011;35476;52.466;13.364;2023-02-13T01:50:15;6.97;;;3.47;;
49572;SDS011;35476;52.466;13.364;2023-02-13T01:52:43;4.25;;;3.35;;
49572;SDS011;35476;52.466;13.364;2023-02-13T01:55:10;8.30;;;3.40;;
49572;SDS011;35476;52.466;13.364;2023-02-13T01:57:36;8.15;;;3.72;;
49572;SDS011;35476;52.466;13.364;2023-02-13T02:00:07;6.28;;;3.70;;
49572;SDS011;35476;52.466;13.364;2023-02-13T02:02:33;5.97;;;3.55;;
49572;SDS011;35476;52.466;13.364;2023-02-13T02:05:01;6.22;;;4.18;;
49572;SDS011;35476;52.466;13.364;2023-02-13T02:07:27;7.38;;;4.18;;
49572;SDS011;35476;52.466;13.364;2023-02-13T02:09:55;7.80;;;4.15;;
49572;SDS011;35476;52.466;13.364;2023-02-13T02:17:29;9.43;;;4.72;;
49572;SDS011;35476;52.466;13.364;2023-02-13T02:32:59;12.17;;;5.07;;
49572;SDS011;35476;52.466;13.364;2023-02-13T02:37:59;6.18;;;4.20;;
49572;SDS011;35476;52.466;13.364;2023-02-13T02:40:36;7.88;;;4.97;;
49572;SDS011;35476;52.466;13.364;2023-02-13T02:45:35;6.30;;;4.68;;
49572;SDS011;35476;52.466;13.364;2023-02-13T02:48:13;8.65;;;4.80;;
49572;SDS011;35476;52.466;13.364;2023-02-13T02:56:06;8.27;;;4.67;;
49572;SDS011;35476;52.466;13.364;2023-02-13T02:58:36;8.45;;;5.85;;
49572;SDS011;35476;52.466;13.364;2023-02-13T03:01:22;8.65;;;5.60;;
49572;SDS011;35476;52.466;13.364;2023-02-13T03:04:09;9.77;;;6.78;;
49572;SDS011;35476;52.466;13.364;2023-02-13T03:06:57;12.40;;;6.75;;
49572;SDS011;35476;52.466;13.364;2023-02-13T03:09:35;10.93;;;6.18;;
49572;SDS011;35476;52.466;13.364;2023-02-13T03:12:21;11.85;;;7.57;;
49572;SDS011;35476;52.466;13.364;2023-02-13T03:15:06;18.20;;;8.05;;
49572;SDS011;35476;52.466;13.364;2023-02-13T03:17:32;13.80;;;8.48;;
49572;SDS011;35476;52.466;13.364;2023-02-13T03:41:21;17.50;;;10.23;;
49572;SDS011;35476;52.466;13.364;2023-02-13T03:46:17;16.60;;;10.48;;
49572;SDS011;35476;52.466;13.364;2023-02-13T03:48:43;17.00;;;10.00;;
49572;SDS011;35476;52.466;13.364;2023-02-13T03:51:30;15.70;;;9.82;;
49572;SDS011;35476;52.466;13.364;2023-02-13T03:53:57;17.92;;;11.40;;
49572;SDS011;35476;52.466;13.364;2023-02-13T03:56:23;16.05;;;12.57;;
49572;SDS011;35476;52.466;13.364;2023-02-13T03:59:11;19.75;;;12.13;;
49572;SDS011;35476;52.466;13.364;2023-02-13T04:01:43;21.48;;;12.40;;
49572;SDS011;35476;52.466;13.364;2023-02-13T04:06:47;16.48;;;11.20;;
49572;SDS011;35476;52.466;13.364;2023-02-13T04:09:14;17.55;;;11.57;;
49572;SDS011;35476;52.466;13.364;2023-02-13T04:14:26;20.65;;;12.85;;
49572;SDS011;35476;52.466;13.364;2023-02-13T04:16:56;20.27;;;12.40;;
49572;SDS011;35476;52.466;13.364;2023-02-13T04:19:22;16.88;;;11.75;;
49572;SDS011;35476;52.466;13.364;2023-02-13T04:21:53;22.23;;;13.63;;
49572;SDS011;35476;52.466;13.364;2023-02-13T04:24:19;19.10;;;11.70;;
49572;SDS011;35476;52.466;13.364;2023-02-13T04:26:45;17.30;;;12.00;;
49572;SDS011;35476;52.466;13.364;2023-02-13T04:29:10;21.13;;;12.53;;
49572;SDS011;35476;52.466;13.364;2023-02-13T04:31:35;16.70;;;11.50;;
49572;SDS011;35476;52.466;13.364;2023-02-13T04:34:00;18.08;;;11.85;;
49572;SDS011;35476;52.466;13.364;2023-02-13T04:36:25;16.67;;;12.53;;
49572;SDS011;35476;52.466;13.364;2023-02-13T04:38:51;17.23;;;11.97;;
49572;SDS011;35476;52.466;13.364;2023-02-13T04:41:16;20.33;;;12.25;;
49572;SDS011;35476;52.466;13.364;2023-02-13T04:43:41;19.88;;;12.23;;
49572;SDS011;35476;52.466;13.364;2023-02-13T04:46:06;14.53;;;10.47;;
49572;SDS011;35476;52.466;13.364;2023-02-13T04:48:32;17.48;;;12.15;;
49572;SDS011;35476;52.466;13.364;2023-02-13T04:50:57;14.43;;;10.97;;
49572;SDS011;35476;52.466;13.364;2023-02-13T04:53:22;17.33;;;11.27;;
49572;SDS011;35476;52.466;13.364;2023-02-13T04:55:47;15.97;;;9.40;;
49572;SDS011;35476;52.466;13.364;2023-02-13T04:58:12;17.07;;;10.07;;
49572;SDS011;35476;52.466;13.364;2023-02-13T05:00:38;15.03;;;10.03;;
49572;SDS011;35476;52.466;13.364;2023-02-13T05:03:04;14.83;;;10.23;;
49572;SDS011;35476;52.466;13.364;2023-02-13T05:05:29;17.63;;;10.05;;
49572;SDS011;35476;52.466;13.364;2023-02-13T05:07:55;16.03;;;10.27;;
49572;SDS011;35476;52.466;13.364;2023-02-13T05:10:20;16.63;;;9.95;;
49572;SDS011;35476;52.466;13.364;2023-02-13T05:12:46;14.27;;;10.02;;
49572;SDS011;35476;52.466;13.364;2023-02-13T05:15:11;14.75;;;9.70;;
49572;SDS011;35476;52.466;13.364;2023-02-13T05:17:36;14.33;;;10.43;;
49572;SDS011;35476;52.466;13.364;2023-02-13T05:20:02;14.87;;;10.87;;
49572;SDS011;35476;52.466;13.364;2023-02-13T05:22:27;14.07;;;10.77;;
49572;SDS011;35476;52.466;13.364;2023-02-13T05:25:11;15.30;;;10.18;;
49572;SDS011;35476;52.466;13.364;2023-02-13T05:27:36;15.20;;;9.93;;
49572;SDS011;35476;52.466;13.364;2023-02-13T05:30:01;14.10;;;10.40;;
49572;SDS011;35476;52.466;13.364;2023-02-13T05:32:26;12.25;;;9.20;;
49572;SDS011;35476;52.466;13.364;2023-02-13T05:34:52;15.13;;;10.20;;
49572;SDS011;35476;52.466;13.364;2023-02-13T05:37:17;14.97;;;9.70;;
49572;SDS011;35476;52.466;13.364;2023-02-13T05:39:42;10.95;;;8.30;;
49572;SDS011;35476;52.466;13.364;2023-02-13T05:42:07;10.40;;;7.23;;
49572;SDS011;35476;52.466;13.364;2023-02-13T05:44:34;9.23;;;7.55;;
49572;SDS011;35476;52.466;13.364;2023-02-13T05:46:59;12.87;;;7.93;;
49572;SDS011;35476;52.466;13.364;2023-02-13T05:49:24;13.23;;;9.20;;
49572;SDS011;35476;52.466;13.364;2023-02-13T05:51:50;9.77;;;8.20;;
49572;SDS011;35476;52.466;13.364;2023-02-13T05:54:16;12.23;;;8.75;;
49572;SDS011;35476;52.466;13.364;2023-02-13T05:56:41;10.73;;;7.95;;
49572;SDS011;35476;52.466;13.364;2023-02-13T05:59:06;10.88;;;7.03;;
49572;SDS011;35476;52.466;13.364;2023-02-13T06:01:32;7.90;;;6.67;;
49572;SDS011;35476;52.466;13.364;2023-02-13T06:03:57;8.63;;;6.88;;
49572;SDS011;35476;52.466;13.364;2023-02-13T06:06:22;9.95;;;6.95;;
49572;SDS011;35476;52.466;13.364;2023-02-13T06:08:48;7.35;;;6.18;;
49572;SDS011;35476;52.466;13.364;2023-02-13T06:11:13;8.45;;;7.03;;
49572;SDS011;35476;52.466;13.364;2023-02-13T06:13:38;9.57;;;7.10;;
49572;SDS011;35476;52.466;13.364;2023-02-13T06:16:05;9.32;;;6.70;;
49572;SDS011;35476;52.466;13.364;2023-02-13T06:18:30;9.35;;;6.03;;
49572;SDS011;35476;52.466;13.364;2023-02-13T06:20:55;6.67;;;5.97;;
49572;SDS011;35476;52.466;13.364;2023-02-13T06:23:21;8.05;;;6.55;;
49572;SDS011;35476;52.466;13.364;2023-02-13T06:25:46;9.60;;;6.97;;
49572;SDS011;35476;52.466;13.364;2023-02-13T06:28:11;9.93;;;7.20;;
49572;SDS011;35476;52.466;13.364;2023-02-13T06:30:36;9.90;;;6.47;;
49572;SDS011;35476;52.466;13.364;2023-02-13T06:33:02;7.05;;;6.15;;
49572;SDS011;35476;52.466;13.364;2023-02-13T06:35:27;7.60;;;6.43;;
49572;SDS011;35476;52.466;13.364;2023-02-13T06:37:52;12.10;;;8.57;;
49572;SDS011;35476;52.466;13.364;2023-02-13T06:40:17;8.90;;;7.45;;
49572;SDS011;35476;52.466;13.364;2023-02-13T06:42:43;10.82;;;7.28;;
49572;SDS011;35476;52.466;13.364;2023-02-13T06:45:08;9.95;;;7.35;;
49572;SDS011;35476;52.466;13.364;2023-02-13T06:47:34;9.75;;;6.20;;
49572;SDS011;35476;52.466;13.364;2023-02-13T06:49:59;13.68;;;7.50;;
49572;SDS011;35476;52.466;13.364;2023-02-13T06:52:25;10.15;;;7.50;;
49572;SDS011;35476;52.466;13.364;2023-02-13T06:54:50;11.33;;;7.10;;
49572;SDS011;35476;52.466;13.364;2023-02-13T06:57:15;9.50;;;7.53;;
49572;SDS011;35476;52.466;13.364;2023-02-13T06:59:41;10.13;;;7.43;;
49572;SDS011;35476;52.466;13.364;2023-02-13T07:02:08;9.27;;;6.78;;
49572;SDS011;35476;52.466;13.364;2023-02-13T07:04:33;11.30;;;7.22;;
49572;SDS011;35476;52.466;13.364;2023-02-13T07:06:58;10.50;;;8.43;;
49572;SDS011;35476;52.466;13.364;2023-02-13T07:09:23;12.37;;;8.23;;
49572;SDS011;35476;52.466;13.364;2023-02-13T07:11:49;9.88;;;7.68;;
49572;SDS011;35476;52.466;13.364;2023-02-13T07:14:14;9.70;;;7.07;;
49572;SDS011;35476;52.466;13.364;2023-02-13T07:16:39;10.60;;;7.60;;
49572;SDS011;35476;52.466;13.364;2023-02-13T07:19:04;10.77;;;7.83;;
49572;SDS011;35476;52.466;13.364;2023-02-13T07:21:30;9.65;;;7.45;;
49572;SDS011;35476;52.466;13.364;2023-02-13T07:23:55;10.37;;;7.17;;
49572;SDS011;35476;52.466;13.364;2023-02-13T07:26:20;11.13;;;7.93;;
49572;SDS011;35476;52.466;13.364;2023-02-13T07:28:45;10.23;;;8.30;;
49572;SDS011;35476;52.466;13.364;2023-02-13T07:31:10;11.13;;;7.97;;
49572;SDS011;35476;52.466;13.364;2023-02-13T07:33:36;10.75;;;8.25;;
49572;SDS011;35476;52.466;13.364;2023-02-13T07:36:01;13.05;;;8.77;;
49572;SDS011;35476;52.466;13.364;2023-02-13T07:38:30;11.27;;;7.75;;
49572;SDS011;35476;52.466;13.364;2023-02-13T07:40:59;13.80;;;10.05;;
49572;SDS011;35476;52.466;13.364;2023-02-13T07:43:24;9.35;;;7.18;;
49572;SDS011;35476;52.466;13.364;2023-02-13T07:45:50;9.07;;;7.20;;
49572;SDS011;35476;52.466;13.364;2023-02-13T07:48:19;11.38;;;7.78;;
49572;SDS011;35476;52.466;13.364;2023-02-13T07:50:44;10.03;;;6.87;;
49572;SDS011;35476;52.466;13.364;2023-02-13T07:53:09;9.80;;;7.35;;
49572;SDS011;35476;52.466;13.364;2023-02-13T07:55:34;12.43;;;7.17;;
49572;SDS011;35476;52.466;13.364;2023-02-13T07:58:00;11.77;;;7.63;;
49572;SDS011;35476;52.466;13.364;2023-02-13T08:00:25;14.10;;;9.93;;
49572;SDS011;35476;52.466;13.364;2023-02-13T08:02:51;10.23;;;7.20;;
49572;SDS011;35476;52.466;13.364;2023-02-13T08:05:16;8.23;;;7.17;;
49572;SDS011;35476;52.466;13.364;2023-02-13T08:07:41;11.63;;;7.82;;
49572;SDS011;35476;52.466;13.364;2023-02-13T08:10:07;9.33;;;7.00;;
49572;SDS011;35476;52.466;13.364;2023-02-13T08:13:05;11.05;;;7.93;;
49572;SDS011;35476;52.466;13.364;2023-02-13T08:15:31;10.73;;;7.28;;
49572;SDS011;35476;52.466;13.364;2023-02-13T08:17:56;9.57;;;7.43;;
49572;SDS011;35476;52.466;13.364;2023-02-13T08:20:21;11.40;;;7.13;;
49572;SDS011;35476;52.466;13.364;2023-02-13T08:22:48;10.88;;;8.32;;
49572;SDS011;35476;52.466;13.364;2023-02-13T08:25:13;10.38;;;7.78;;
49572;SDS011;35476;52.466;13.364;2023-02-13T08:27:38;10.90;;;8.13;;
49572;SDS011;35476;52.466;13.364;2023-02-13T08:30:04;10.97;;;7.20;;
49572;SDS011;35476;52.466;13.364;2023-02-13T08:32:30;12.30;;;7.95;;
49572;SDS011;35476;52.466;13.364;2023-02-13T08:34:55;9.75;;;8.07;;
49572;SDS011;35476;52.466;13.364;2023-02-13T08:37:20;11.93;;;7.43;;
49572;SDS011;35476;52.466;13.364;2023-02-13T08:39:45;10.90;;;7.30;;
49572;SDS011;35476;52.466;13.364;2023-02-13T08:42:11;10.82;;;7.85;;
49572;SDS011;35476;52.466;13.364;2023-02-13T08:44:36;8.93;;;6.70;;
49572;SDS011;35476;52.466;13.364;2023-02-13T08:47:04;9.50;;;6.93;;
49572;SDS011;35476;52.466;13.364;2023-02-13T08:49:30;9.73;;;7.43;;
49572;SDS011;35476;52.466;13.364;2023-02-13T08:51:56;9.73;;;7.80;;
49572;SDS011;35476;52.466;13.364;2023-02-13T08:54:21;10.60;;;7.22;;
49572;SDS011;35476;52.466;13.364;2023-02-13T08:56:46;9.43;;;7.13;;
49572;SDS011;35476;52.466;13.364;2023-02-13T08:59:11;9.43;;;6.80;;
49572;SDS011;35476;52.466;13.364;2023-02-13T09:01:36;9.63;;;6.65;;
49572;SDS011;35476;52.466;13.364;2023-02-13T09:04:02;10.48;;;7.03;;
49572;SDS011;35476;52.466;13.364;2023-02-13T09:06:27;9.90;;;7.63;;
49572;SDS011;35476;52.466;13.364;2023-02-13T09:08:52;9.27;;;7.18;;
49572;SDS011;35476;52.466;13.364;2023-02-13T09:11:18;10.18;;;7.20;;
49572;SDS011;35476;52.466;13.364;2023-02-13T09:13:43;10.48;;;7.60;;
49572;SDS011;35476;52.466;13.364;2023-02-13T09:16:09;13.68;;;8.48;;
49572;SDS011;35476;52.466;13.364;2023-02-13T09:18:34;11.18;;;7.43;;
49572;SDS011;35476;52.466;13.364;2023-02-13T09:21:00;10.25;;;7.55;;
49572;SDS011;35476;52.466;13.364;2023-02-13T09:23:26;11.27;;;7.68;;
49572;SDS011;35476;52.466;13.364;2023-02-13T09:25:51;12.35;;;8.13;;
49572;SDS011;35476;52.466;13.364;2023-02-13T09:28:16;11.18;;;7.82;;
49572;SDS011;35476;52.466;13.364;2023-02-13T09:30:42;13.57;;;8.77;;
49572;SDS011;35476;52.466;13.364;2023-02-13T09:33:10;11.30;;;8.37;;
49572;SDS011;35476;52.466;13.364;2023-02-13T09:35:36;15.90;;;9.02;;
49572;SDS011;35476;52.466;13.364;2023-02-13T09:38:01;11.93;;;8.35;;
49572;SDS011;35476;52.466;13.364;2023-02-13T09:40:27;15.33;;;9.80;;
49572;SDS011;35476;52.466;13.364;2023-02-13T09:42:55;13.93;;;9.00;;
49572;SDS011;35476;52.466;13.364;2023-02-13T09:45:26;13.27;;;8.73;;
49572;SDS011;35476;52.466;13.364;2023-02-13T09:47:51;14.17;;;9.77;;
49572;SDS011;35476;52.466;13.364;2023-02-13T09:52:46;15.73;;;9.68;;
49572;SDS011;35476;52.466;13.364;2023-02-13T09:55:14;15.80;;;10.57;;
49572;SDS011;35476;52.466;13.364;2023-02-13T09:57:46;14.07;;;9.48;;
49572;SDS011;35476;52.466;13.364;2023-02-13T10:00:25;20.75;;;13.10;;
49572;SDS011;35476;52.466;13.364;2023-02-13T10:08:09;16.35;;;10.38;;
49572;SDS011;35476;52.466;13.364;2023-02-13T10:13:17;15.15;;;10.75;;
49572;SDS011;35476;52.466;13.364;2023-02-13T10:18:16;14.60;;;9.55;;
49572;SDS011;35476;52.466;13.364;2023-02-13T10:30:53;14.73;;;9.85;;
49572;SDS011;35476;52.466;13.364;2023-02-13T10:33:22;11.98;;;9.07;;
49572;SDS011;35476;52.466;13.364;2023-02-13T10:36:34;12.57;;;9.38;;
49572;SDS011;35476;52.466;13.364;2023-02-13T10:38:37;13.63;;;9.15;;
49572;SDS011;35476;52.466;13.364;2023-02-13T10:41:18;12.98;;;8.38;;
49572;SDS011;35476;52.466;13.364;2023-02-13T10:46:26;12.60;;;8.75;;
49572;SDS011;35476;52.466;13.364;2023-02-13T10:48:56;12.20;;;9.05;;
49572;SDS011;35476;52.466;13.364;2023-02-13T10:51:29;14.63;;;8.88;;
49572;SDS011;35476;52.466;13.364;2023-02-13T10:54:09;15.60;;;10.43;;
49572;SDS011;35476;52.466;13.364;2023-02-13T10:59:26;17.05;;;10.27;;
49572;SDS011;35476;52.466;13.364;2023-02-13T11:02:01;13.57;;;9.30;;
49572;SDS011;35476;52.466;13.364;2023-02-13T11:04:27;17.27;;;11.80;;
49572;SDS011;35476;52.466;13.364;2023-02-13T11:06:59;15.15;;;10.98;;
49572;SDS011;35476;52.466;13.364;2023-02-13T11:09:25;15.95;;;10.65;;
49572;SDS011;35476;52.466;13.364;2023-02-13T11:11:51;15.75;;;10.40;;
49572;SDS011;35476;52.466;13.364;2023-02-13T11:14:17;17.70;;;10.15;;
49572;SDS011;35476;52.466;13.364;2023-02-13T11:17:02;14.68;;;11.15;;
49572;SDS011;35476;52.466;13.364;2023-02-13T11:21:56;14.03;;;10.53;;
49572;SDS011;35476;52.466;13.364;2023-02-13T11:24:22;12.98;;;9.77;;
49572;SDS011;35476;52.466;13.364;2023-02-13T11:26:49;13.55;;;10.30;;
49572;SDS011;35476;52.466;13.364;2023-02-13T11:29:28;15.25;;;10.27;;
49572;SDS011;35476;52.466;13.364;2023-02-13T11:32:27;14.63;;;10.75;;
49572;SDS011;35476;52.466;13.364;2023-02-13T11:34:45;14.95;;;11.32;;
49572;SDS011;35476;52.466;13.364;2023-02-13T11:39:36;14.43;;;10.57;;
49572;SDS011;35476;52.466;13.364;2023-02-13T11:42:01;12.75;;;9.77;;
49572;SDS011;35476;52.466;13.364;2023-02-13T11:44:27;15.85;;;11.48;;
49572;SDS011;35476;52.466;13.364;2023-02-13T11:46:54;15.07;;;11.52;;
49572;SDS011;35476;52.466;13.364;2023-02-13T11:49:23;16.13;;;11.52;;
49572;SDS011;35476;52.466;13.364;2023-02-13T11:51:55;14.73;;;11.57;;
49572;SDS011;35476;52.466;13.364;2023-02-13T11:56:56;15.40;;;10.90;;
49572;SDS011;35476;52.466;13.364;2023-02-13T11:59:22;13.60;;;10.93;;
49572;SDS011;35476;52.466;13.364;2023-02-13T12:04:34;13.60;;;10.70;;
49572;SDS011;35476;52.466;13.364;2023-02-13T12:07:03;14.48;;;11.50;;
49572;SDS011;35476;52.466;13.364;2023-02-13T12:09:29;15.77;;;11.63;;
49572;SDS011;35476;52.466;13.364;2023-02-13T12:11:56;15.13;;;11.65;;
49572;SDS011;35476;52.466;13.364;2023-02-13T12:14:23;17.33;;;12.23;;
49572;SDS011;35476;52.466;13.364;2023-02-13T12:16:49;13.88;;;12.00;;
49572;SDS011;35476;52.466;13.364;2023-02-13T12:19:38;14.30;;;11.32;;
49572;SDS011;35476;52.466;13.364;2023-02-13T12:27:05;14.35;;;11.85;;
49572;SDS011;35476;52.466;13.364;2023-02-13T12:45:13;16.27;;;11.02;;
49572;SDS011;35476;52.466;13.364;2023-02-13T12:47:56;14.88;;;12.80;;
49572;SDS011;35476;52.466;13.364;2023-02-13T12:56:14;17.40;;;13.43;;
49572;SDS011;35476;52.466;13.364;2023-02-13T13:19:03;17.15;;;12.50;;
49572;SDS011;35476;52.466;13.364;2023-02-13T13:21:54;14.68;;;12.20;;
49572;SDS011;35476;52.466;13.364;2023-02-13T13:26:48;20.38;;;14.35;;
49572;SDS011;35476;52.466;13.364;2023-02-13T13:31:39;21.30;;;14.30;;
49572;SDS011;35476;52.466;13.364;2023-02-13T13:34:06;17.40;;;13.63;;
49572;SDS011;35476;52.466;13.364;2023-02-13T13:36:40;15.77;;;12.70;;
49572;SDS011;35476;52.466;13.364;2023-02-13T13:39:16;16.63;;;12.45;;
49572;SDS011;35476;52.466;13.364;2023-02-13T13:52:31;19.83;;;13.85;;
49572;SDS011;35476;52.466;13.364;2023-02-13T13:54:58;20.52;;;14.13;;
49572;SDS011;35476;52.466;13.364;2023-02-13T13:59:57;16.87;;;12.03;;
49572;SDS011;35476;52.466;13.364;2023-02-13T14:07:33;16.98;;;11.88;;
49572;SDS011;35476;52.466;13.364;2023-02-13T14:09:59;20.67;;;12.93;;
49572;SDS011;35476;52.466;13.364;2023-02-13T14:14:53;17.30;;;12.55;;
49572;SDS011;35476;52.466;13.364;2023-02-13T14:20:10;15.57;;;11.48;;
49572;SDS011;35476;52.466;13.364;2023-02-13T14:22:41;20.80;;;13.07;;
49572;SDS011;35476;52.466;13.364;2023-02-13T14:25:06;23.00;;;13.05;;
49572;SDS011;35476;52.466;13.364;2023-02-13T14:27:50;16.38;;;13.05;;
49572;SDS011;35476;52.466;13.364;2023-02-13T14:30:26;20.83;;;14.38;;
49572;SDS011;35476;52.466;13.364;2023-02-13T14:35:22;20.67;;;13.80;;
49572;SDS011;35476;52.466;13.364;2023-02-13T14:37:52;17.92;;;13.30;;
49572;SDS011;35476;52.466;13.364;2023-02-13T14:42:43;21.80;;;13.73;;
49572;SDS011;35476;52.466;13.364;2023-02-13T14:45:12;17.50;;;12.93;;
49572;SDS011;35476;52.466;13.364;2023-02-13T14:47:40;15.30;;;13.35;;
49572;SDS011;35476;52.466;13.364;2023-02-13T14:50:07;24.95;;;13.60;;
49572;SDS011;35476;52.466;13.364;2023-02-13T14:52:38;20.17;;;14.57;;
49572;SDS011;35476;52.466;13.364;2023-02-13T14:57:51;21.50;;;15.27;;
49572;SDS011;35476;52.466;13.364;2023-02-13T15:00:27;18.55;;;14.40;;
49572;SDS011;35476;52.466;13.364;2023-02-13T15:02:55;21.05;;;14.93;;
49572;SDS011;35476;52.466;13.364;2023-02-13T15:05:23;22.90;;;17.10;;
49572;SDS011;35476;52.466;13.364;2023-02-13T15:08:03;18.67;;;13.40;;
49572;SDS011;35476;52.466;13.364;2023-02-13T15:13:03;25.17;;;14.35;;
49572;SDS011;35476;52.466;13.364;2023-02-13T15:15:31;21.42;;;13.13;;
49572;SDS011;35476;52.466;13.364;2023-02-13T15:18:40;19.05;;;13.65;;
49572;SDS011;35476;52.466;13.364;2023-02-13T15:20:45;19.33;;;14.30;;
49572;SDS011;35476;52.466;13.364;2023-02-13T15:23:24;19.90;;;14.82;;
49572;SDS011;35476;52.466;13.364;2023-02-13T15:28:22;16.95;;;13.45;;
49572;SDS011;35476;52.466;13.364;2023-02-13T15:30:58;19.23;;;13.35;;
49572;SDS011;35476;52.466;13.364;2023-02-13T15:33:28;19.42;;;12.43;;
49572;SDS011;35476;52.466;13.364;2023-02-13T15:36:05;18.98;;;13.85;;
49572;SDS011;35476;52.466;13.364;2023-02-13T15:38:31;18.40;;;13.43;;
49572;SDS011;35476;52.466;13.364;2023-02-13T15:41:01;17.60;;;13.57;;
49572;SDS011;35476;52.466;13.364;2023-02-13T15:45:58;16.60;;;13.20;;
49572;SDS011;35476;52.466;13.364;2023-02-13T15:48:24;20.60;;;13.88;;
49572;SDS011;35476;52.466;13.364;2023-02-13T15:50:49;17.50;;;12.80;;
49572;SDS011;35476;52.466;13.364;2023-02-13T15:53:15;22.17;;;13.95;;
49572;SDS011;35476;52.466;13.364;2023-02-13T15:55:44;17.67;;;12.32;;
49572;SDS011;35476;52.466;13.364;2023-02-13T15:58:19;18.75;;;13.50;;
49572;SDS011;35476;52.466;13.364;2023-02-13T16:00:44;16.85;;;13.05;;
49572;SDS011;35476;52.466;13.364;2023-02-13T16:03:15;19.43;;;13.77;;
49572;SDS011;35476;52.466;13.364;2023-02-13T16:05:41;19.85;;;14.68;;
49572;SDS011;35476;52.466;13.364;2023-02-13T16:11:09;21.25;;;14.43;;
49572;SDS011;35476;52.466;13.364;2023-02-13T16:13:34;20.13;;;13.07;;
49572;SDS011;35476;52.466;13.364;2023-02-13T16:16:00;19.95;;;15.20;;
49572;SDS011;35476;52.466;13.364;2023-02-13T16:18:26;18.88;;;13.65;;
49572;SDS011;35476;52.466;13.364;2023-02-13T16:20:52;19.77;;;13.67;;
49572;SDS011;35476;52.466;13.364;2023-02-13T16:23:18;19.92;;;13.35;;
49572;SDS011;35476;52.466;13.364;2023-02-13T16:25:44;17.85;;;12.85;;
49572;SDS011;35476;52.466;13.364;2023-02-13T16:30:42;21.77;;;14.63;;
49572;SDS011;35476;52.466;13.364;2023-02-13T16:35:41;24.85;;;15.48;;
49572;SDS011;35476;52.466;13.364;2023-02-13T16:40:52;18.60;;;14.55;;
49572;SDS011;35476;52.466;13.364;2023-02-13T16:43:34;20.05;;;13.32;;
49572;SDS011;35476;52.466;13.364;2023-02-13T16:46:15;19.20;;;13.48;;
49572;SDS011;35476;52.466;13.364;2023-02-13T16:51:22;17.25;;;13.57;;
49572;SDS011;35476;52.466;13.364;2023-02-13T16:53:55;22.77;;;15.02;;
49572;SDS011;35476;52.466;13.364;2023-02-13T16:56:20;21.55;;;14.93;;
49572;SDS011;35476;52.466;13.364;2023-02-13T16:58:45;21.20;;;14.00;;
49572;SDS011;35476;52.466;13.364;2023-02-13T17:01:12;21.43;;;14.93;;
49572;SDS011;35476;52.466;13.364;2023-02-13T17:03:38;20.17;;;14.75;;
49572;SDS011;35476;52.466;13.364;2023-02-13T17:06:04;21.97;;;15.20;;
49572;SDS011;35476;52.466;13.364;2023-02-13T17:08:29;26.33;;;15.65;;
49572;SDS011;35476;52.466;13.364;2023-02-13T17:11:06;21.33;;;14.60;;
49572;SDS011;35476;52.466;13.364;2023-02-13T17:13:32;25.55;;;15.93;;
49572;SDS011;35476;52.466;13.364;2023-02-13T17:15:57;21.50;;;15.05;;
49572;SDS011;35476;52.466;13.364;2023-02-13T17:18:24;23.95;;;16.58;;
49572;SDS011;35476;52.466;13.364;2023-02-13T17:20:49;22.35;;;14.15;;
49572;SDS011;35476;52.466;13.364;2023-02-13T17:23:15;18.52;;;14.07;;
49572;SDS011;35476;52.466;13.364;2023-02-13T17:25:41;20.70;;;14.90;;
49572;SDS011;35476;52.466;13.364;2023-02-13T17:28:21;18.55;;;14.98;;
49572;SDS011;35476;52.466;13.364;2023-02-13T17:30:46;21.60;;;15.38;;
49572;SDS011;35476;52.466;13.364;2023-02-13T17:33:13;20.85;;;14.57;;
49572;SDS011;35476;52.466;13.364;2023-02-13T17:35:40;21.77;;;14.63;;
49572;SDS011;35476;52.466;13.364;2023-02-13T17:38:05;20.67;;;14.37;;
49572;SDS011;35476;52.466;13.364;2023-02-13T17:40:32;20.65;;;14.35;;
49572;SDS011;35476;52.466;13.364;2023-02-13T17:42:57;20.77;;;14.93;;